Time;durP1;ratioP1;P1;durP2;ratioP2;P2;SDS_P1;SDS_P2;PMS_P1;PMS_P2;Temp;Humidity;BMP_temperature;BMP_pressure;BME280_temperature;BME280_humidity;BME280_pressure;Samples;Min_cycle;Max_cycle;Signal;HPM_P1;HPM_P2
2022/03/11 00:01:09;;;;;;;35.45;14.75;;;;;;;-3.83;51.91;102839.02;1738310;81;26376;-75
2022/03/11 00:03:35;;;;;;;32.83;14.18;;;;;;;-3.86;52.13;102843.02;1743516;81;25800;-75
2022/03/11 00:06:02;;;;;;;35.40;14.85;;;;;;;-3.96;52.34;102845.86;1736266;81;26521;-76
2022/03/11 00:08:30;;;;;;;34.03;14.35;;;;;;;-4.03;52.63;102850.00;1754370;81;25836;-75
2022/03/11 00:10:56;;;;;;;34.45;13.70;;;;;;;-4.10;53.16;102846.68;1754537;81;27447;-75
2022/03/11 00:13:23;;;;;;;27.60;11.88;;;;;;;-4.15;53.61;102846.41;1740784;81;25719;-75
2022/03/11 00:15:50;;;;;;;29.67;12.25;;;;;;;-4.20;53.82;102842.59;1736293;81;25742;-75
2022/03/11 00:18:18;;;;;;;30.43;13.13;;;;;;;-4.25;53.94;102849.68;1745976;81;27032;-76
2022/03/11 00:20:44;;;;;;;28.70;13.03;;;;;;;-4.31;54.07;102847.22;1748066;80;25801;-74
2022/03/11 00:23:11;;;;;;;29.02;13.83;;;;;;;-4.37;54.60;102845.20;1742954;81;28035;-75
2022/03/11 00:25:37;;;;;;;29.98;12.63;;;;;;;-4.44;54.98;102843.62;1739452;81;25988;-75
2022/03/11 00:28:04;;;;;;;37.17;15.75;;;;;;;-4.49;55.11;102843.72;1739522;81;25770;-76
2022/03/11 00:30:30;;;;;;;33.73;13.98;;;;;;;-4.54;55.33;102846.92;1746093;81;25986;-76
2022/03/11 00:32:57;;;;;;;35.23;14.35;;;;;;;-4.61;55.35;102844.03;1736957;81;26476;-75
2022/03/11 00:35:23;;;;;;;31.52;13.53;;;;;;;-4.67;55.49;102848.09;1741379;81;27428;-76
2022/03/11 00:37:52;;;;;;;29.35;12.98;;;;;;;-4.76;55.64;102853.09;1742893;81;25612;-75
2022/03/11 00:40:18;;;;;;;35.25;13.88;;;;;;;-4.82;56.03;102851.06;1745547;81;25775;-75
2022/03/11 00:42:44;;;;;;;35.45;14.65;;;;;;;-4.87;56.21;102847.23;1743959;81;25983;-75
2022/03/11 00:45:11;;;;;;;30.55;12.55;;;;;;;-4.92;56.25;102846.47;1747128;81;26523;-75
2022/03/11 00:47:37;;;;;;;29.77;12.53;;;;;;;-4.93;56.25;102855.22;1740090;81;27495;-75
2022/03/11 00:50:04;;;;;;;28.85;13.05;;;;;;;-4.96;56.22;102844.81;1740829;81;26134;-75
2022/03/11 00:52:31;;;;;;;28.15;14.15;;;;;;;-4.96;56.22;102851.34;1749619;81;25740;-75
2022/03/11 00:54:57;;;;;;;32.70;13.00;;;;;;;-4.98;56.19;102853.58;1746178;81;26393;-75
2022/03/11 00:57:23;;;;;;;28.40;12.70;;;;;;;-4.99;56.10;102854.48;1754012;81;26015;-75
2022/03/11 00:59:49;;;;;;;28.87;12.95;;;;;;;-4.99;56.20;102850.56;1754206;81;27651;-75
2022/03/11 01:02:17;;;;;;;27.90;13.22;;;;;;;-5.02;56.18;102849.31;1749829;81;25803;-75
2022/03/11 01:04:43;;;;;;;28.07;13.20;;;;;;;-5.03;56.13;102855.02;1741586;81;25796;-75
2022/03/11 01:07:09;;;;;;;27.35;11.68;;;;;;;-5.05;56.06;102845.48;1749824;81;25960;-75
2022/03/11 01:09:35;;;;;;;29.48;13.08;;;;;;;-5.06;56.01;102847.22;1745112;81;25830;-75
2022/03/11 01:12:02;;;;;;;29.27;13.25;;;;;;;-5.08;55.94;102846.84;1741457;81;27439;-76
2022/03/11 01:14:28;;;;;;;32.85;13.90;;;;;;;-5.08;55.96;102854.67;1745484;81;25829;-75
2022/03/11 01:16:54;;;;;;;30.37;13.98;;;;;;;-5.10;55.96;102853.85;1745959;81;25858;-75
2022/03/11 01:19:21;;;;;;;36.75;13.75;;;;;;;-5.10;56.03;102857.33;1749906;81;25807;-75
2022/03/11 01:21:47;;;;;;;31.05;14.28;;;;;;;-5.09;56.18;102855.11;1742431;81;26554;-75
2022/03/11 01:24:13;;;;;;;41.37;13.85;;;;;;;-5.08;56.21;102852.94;1748872;80;27463;-75
2022/03/11 01:26:39;;;;;;;34.30;13.75;;;;;;;-5.09;56.29;102859.51;1748006;81;25840;-74
2022/03/11 01:29:05;;;;;;;29.40;13.40;;;;;;;-5.15;56.30;102860.47;1744555;81;25476;-75
2022/03/11 01:31:33;;;;;;;39.27;15.60;;;;;;;-5.18;56.39;102864.48;1743306;81;26656;-75
2022/03/11 01:33:59;;;;;;;35.70;15.38;;;;;;;-5.22;56.57;102860.65;1745835;81;25755;-75
2022/03/11 01:36:25;;;;;;;33.90;15.60;;;;;;;-5.23;56.73;102861.53;1748835;81;28376;-75
2022/03/11 01:38:53;;;;;;;41.88;16.97;;;;;;;-5.26;56.82;102862.91;1747185;81;25997;-74
2022/03/11 01:41:19;;;;;;;39.13;15.38;;;;;;;-5.30;56.91;102862.56;1737157;81;25772;-75
2022/03/11 01:44:01;;;;;;;33.70;15.30;;;;;;;-5.33;56.97;102866.09;1736962;81;25875;-75
2022/03/11 01:46:30;;;;;;;38.42;17.65;;;;;;;-5.34;57.12;102865.66;1739427;81;25302;-74
2022/03/11 01:48:58;;;;;;;39.78;16.55;;;;;;;-5.36;57.20;102868.75;1747531;81;27467;-75
2022/03/11 01:51:27;;;;;;;43.40;16.02;;;;;;;-5.38;57.39;102864.01;1744774;81;25849;-74
2022/03/11 01:53:54;;;;;;;38.30;16.05;;;;;;;-5.40;57.45;102868.41;1743121;81;25777;-74
2022/03/11 01:56:22;;;;;;;35.17;16.23;;;;;;;-5.45;57.68;102874.63;1745641;81;25768;-75
2022/03/11 01:58:49;;;;;;;46.88;18.67;;;;;;;-5.52;57.76;102866.05;1754226;81;25293;-75
2022/03/11 02:01:17;;;;;;;45.12;18.85;;;;;;;-5.54;57.97;102866.05;1746438;81;28267;-75
2022/03/11 02:03:43;;;;;;;45.60;17.80;;;;;;;-5.55;58.05;102877.40;1746475;81;25751;-75
2022/03/11 02:06:13;;;;;;;43.00;17.50;;;;;;;-5.58;58.10;102872.22;1748742;81;25795;-75
2022/03/11 02:08:41;;;;;;;39.05;16.85;;;;;;;-5.60;58.29;102869.22;1743077;81;25773;-75
2022/03/11 02:11:09;;;;;;;43.33;18.90;;;;;;;-5.66;58.34;102871.52;1748147;81;26050;-75
2022/03/11 02:13:53;;;;;;;43.38;18.60;;;;;;;-5.68;58.52;102875.03;1747668;81;27454;-75
2022/03/11 02:16:31;;;;;;;42.98;17.62;;;;;;;-5.71;58.60;102872.50;1741982;81;25796;-75
2022/03/11 02:18:58;;;;;;;43.58;18.62;;;;;;;-5.72;58.83;102874.68;1741818;81;26472;-75
2022/03/11 02:21:29;;;;;;;51.53;21.42;;;;;;;-5.75;59.03;102871.68;1745813;81;26626;-75
2022/03/11 02:23:59;;;;;;;;;;;;;;;-5.79;59.10;102879.59;1745431;81;25922;-75
2022/03/11 02:26:29;;;;;;;42.53;18.50;;;;;;;-5.81;59.32;102880.06;1742107;81;27447;-75
2022/03/11 02:28:57;;;;;;;44.42;19.48;;;;;;;-5.89;59.51;102878.07;1740448;81;26197;-75
2022/03/11 02:31:28;;;;;;;47.48;20.52;;;;;;;-5.91;59.65;102882.02;1745311;81;25852;-75
2022/03/11 02:33:55;;;;;;;40.40;18.35;;;;;;;-5.92;59.68;102875.06;1747726;81;25812;-74
2022/03/11 02:36:21;;;;;;;46.60;20.55;;;;;;;-5.94;59.92;102875.54;1745859;81;25987;-75
2022/03/11 02:38:48;;;;;;;44.13;20.17;;;;;;;-5.94;60.25;102871.63;1745443;81;27477;-75
2022/03/11 02:41:14;;;;;;;40.50;17.90;;;;;;;-5.95;60.25;102876.88;1745991;81;26482;-74
2022/03/11 02:43:42;;;;;;;46.60;19.27;;;;;;;-5.94;60.36;102875.54;1741384;81;25887;-76
2022/03/11 02:46:11;;;;;;;41.40;18.35;;;;;;;-5.93;60.32;102865.97;1748561;81;26627;-75
2022/03/11 02:48:38;;;;;;;50.08;18.70;;;;;;;-5.91;60.30;102862.45;1747649;81;25807;-75
2022/03/11 02:51:04;;;;;;;44.70;19.90;;;;;;;-5.87;60.25;102864.55;1749803;81;27460;-75
2022/03/11 02:53:31;;;;;;;41.85;18.92;;;;;;;-5.84;60.26;102869.73;1738540;81;25512;-75
2022/03/11 02:55:58;;;;;;;43.50;19.15;;;;;;;-5.86;60.51;102866.29;1737970;81;25797;-75
2022/03/11 02:58:25;;;;;;;49.55;19.30;;;;;;;-5.92;60.56;102865.09;1740057;81;25788;-75
2022/03/11 03:00:51;;;;;;;52.45;20.70;;;;;;;-5.93;60.59;102872.06;1746497;81;25978;-75
2022/03/11 03:03:17;;;;;;;46.50;19.62;;;;;;;-5.93;60.57;102871.19;1745257;81;27433;-75
2022/03/11 03:05:43;;;;;;;46.83;21.33;;;;;;;-5.94;60.64;102872.93;1740686;81;25897;-75
2022/03/11 03:08:09;;;;;;;44.95;18.35;;;;;;;-5.94;60.71;102877.28;1743038;81;26463;-75
2022/03/11 03:10:36;;;;;;;50.05;21.05;;;;;;;-5.95;60.72;102878.19;1742801;81;25939;-75
2022/03/11 03:13:03;;;;;;;44.70;20.85;;;;;;;-5.98;60.71;102877.79;1754306;81;25774;-76
2022/03/11 03:15:32;;;;;;;44.15;19.48;;;;;;;-5.99;60.71;102881.30;1745560;81;27472;-75
2022/03/11 03:17:58;;;;;;;51.50;19.73;;;;;;;-6.00;60.73;102880.00;1736742;81;26396;-75
2022/03/11 03:20:24;;;;;;;48.40;20.92;;;;;;;-6.00;60.73;102876.09;1740907;81;25879;-75
2022/03/11 03:22:51;;;;;;;53.10;21.80;;;;;;;-6.02;60.79;102877.42;1747080;81;25887;-75
2022/03/11 03:25:17;;;;;;;45.83;19.32;;;;;;;-6.04;60.75;102876.59;1743985;81;25272;-75
2022/03/11 03:27:44;;;;;;;46.00;21.12;;;;;;;-6.04;60.82;102874.42;1735983;81;27440;-74
2022/03/11 03:30:11;;;;;;;50.40;21.57;;;;;;;-6.08;60.85;102870.14;1745748;81;25739;-75
2022/03/11 03:32:41;;;;;;;51.73;21.73;;;;;;;-6.09;60.92;102865.84;1736749;81;25767;-74
2022/03/11 03:35:10;;;;;;;48.95;20.52;;;;;;;-6.08;60.98;102868.41;1736080;81;25837;-75
2022/03/11 03:37:36;;;;;;;46.28;20.55;;;;;;;-6.04;61.02;102871.81;1743140;81;25679;-75
2022/03/11 03:40:05;;;;;;;42.48;20.05;;;;;;;-6.02;60.96;102866.99;1740927;81;27602;-75
2022/03/11 03:42:31;;;;;;;50.20;20.57;;;;;;;-5.98;60.94;102870.39;1747367;81;25937;-74
2022/03/11 03:44:58;;;;;;;50.75;19.73;;;;;;;-5.96;61.07;102869.48;1743938;81;25881;-75
2022/03/11 03:47:25;;;;;;;44.83;20.70;;;;;;;-5.97;61.10;102867.78;1743955;81;26670;-75
2022/03/11 03:49:51;;;;;;;40.83;19.67;;;;;;;-5.96;61.12;102868.19;1741560;81;25765;-75
2022/03/11 03:52:17;;;;;;;41.20;20.12;;;;;;;-5.97;61.11;102874.74;1749801;81;26867;-74
2022/03/11 03:54:44;;;;;;;46.68;20.72;;;;;;;-5.98;61.21;102875.61;1753627;81;25801;-75
2022/03/11 03:57:11;;;;;;;55.20;22.75;;;;;;;-5.98;61.24;102873.00;1737281;81;26010;-74
2022/03/11 03:59:39;;;;;;;52.40;23.18;;;;;;;-5.99;61.25;102873.91;1745295;81;26538;-75
2022/03/11 04:02:05;;;;;;;50.85;21.17;;;;;;;-5.98;61.30;102873.87;1754559;81;26630;-75
2022/03/11 04:04:32;;;;;;;48.83;21.93;;;;;;;-5.98;61.27;102869.96;1740938;81;27452;-75
2022/03/11 04:06:58;;;;;;;48.48;23.25;;;;;;;-5.99;61.31;102869.56;1749625;81;25886;-75
2022/03/11 04:09:24;;;;;;;51.37;22.32;;;;;;;-6.01;61.08;102870.03;1749851;81;25823;-75
2022/03/11 04:11:51;;;;;;;47.75;21.80;;;;;;;-6.03;60.94;102867.03;1743321;81;26076;-75
2022/03/11 04:14:17;;;;;;;49.40;21.30;;;;;;;-6.04;60.88;102875.29;1738714;81;25825;-75
2022/03/11 04:16:43;;;;;;;50.03;21.77;;;;;;;-6.07;60.94;102870.11;1740755;81;27492;-75
2022/03/11 04:19:09;;;;;;;49.40;21.62;;;;;;;-6.07;60.89;102867.50;1754593;81;26050;-75
2022/03/11 04:21:35;;;;;;;57.03;23.98;;;;;;;-6.06;60.88;102863.16;1749899;81;25705;-75
2022/03/11 04:24:02;;;;;;;57.80;23.73;;;;;;;-6.05;60.83;102865.73;1736499;81;25893;-75
2022/03/11 04:26:28;;;;;;;53.63;25.25;;;;;;;-6.04;60.77;102865.30;1749646;81;25698;-75
2022/03/11 04:28:54;;;;;;;56.53;25.57;;;;;;;-6.03;60.86;102865.72;1745735;81;27447;-75
2022/03/11 04:31:21;;;;;;;56.00;23.75;;;;;;;-6.03;60.84;102866.56;1741013;81;26266;-75
2022/03/11 04:33:47;;;;;;;55.48;25.40;;;;;;;-6.05;60.92;102867.03;1750175;81;26046;-75
2022/03/11 04:36:13;;;;;;;59.65;27.32;;;;;;;-6.07;60.94;102866.67;1738203;81;25778;-75
2022/03/11 04:38:40;;;;;;;53.95;22.70;;;;;;;-6.09;60.97;102867.97;1739181;81;25810;-75
2022/03/11 04:41:06;;;;;;;55.98;24.37;;;;;;;-6.10;61.06;102865.41;1738292;81;27440;-75
2022/03/11 04:43:34;;;;;;;54.60;23.07;;;;;;;-6.12;60.96;102865.44;1746584;81;26512;-75
2022/03/11 04:46:00;;;;;;;54.58;24.52;;;;;;;-6.12;60.94;102869.34;1746175;81;26560;-75
2022/03/11 04:48:27;;;;;;;58.10;25.57;;;;;;;-6.13;60.84;102871.96;1739302;81;26577;-74
2022/03/11 04:50:53;;;;;;;60.25;25.72;;;;;;;-6.17;60.88;102868.55;1744251;81;26013;-75
2022/03/11 04:53:19;;;;;;;49.33;24.18;;;;;;;-6.19;60.92;102869.46;1747671;81;27437;-75
2022/03/11 04:55:46;;;;;;;55.33;24.40;;;;;;;-6.22;61.03;102860.41;1739234;81;25689;-75
2022/03/11 04:58:12;;;;;;;50.70;23.55;;;;;;;-6.24;61.07;102864.78;1751427;81;26541;-75
2022/03/11 05:00:38;;;;;;;52.85;22.77;;;;;;;-6.27;61.08;102866.13;1747296;80;25945;-74
2022/03/11 05:03:04;;;;;;;49.90;22.27;;;;;;;-6.28;61.29;102869.17;1749544;81;25918;-75
2022/03/11 05:05:30;;;;;;;51.80;22.70;;;;;;;-6.27;61.59;102872.64;1742762;81;27429;-75
2022/03/11 05:08:00;;;;;;;58.20;23.18;;;;;;;-6.24;61.86;102877.83;1741438;81;26146;-74
2022/03/11 05:10:26;;;;;;;54.48;22.37;;;;;;;-6.23;61.91;102879.09;1747434;81;25875;-75
2022/03/11 05:12:53;;;;;;;51.40;22.37;;;;;;;-6.22;61.97;102880.80;1747416;81;25761;-75
2022/03/11 05:15:24;;;;;;;53.28;22.45;;;;;;;-6.23;61.83;102879.53;1738491;81;25724;-75
2022/03/11 05:17:49;;;;;;;53.40;23.18;;;;;;;-6.29;61.76;102877.89;1742354;81;27403;-75
2022/03/11 05:20:15;;;;;;;46.73;20.88;;;;;;;-6.32;61.66;102878.80;1752215;81;25911;-75
2022/03/11 05:22:42;;;;;;;52.30;22.10;;;;;;;-6.37;61.68;102876.69;1742691;81;26027;-75
2022/03/11 05:25:10;;;;;;;49.53;22.62;;;;;;;-6.37;61.77;102881.91;1735850;81;25782;-74
2022/03/11 05:27:37;;;;;;;48.15;19.92;;;;;;;-6.37;61.82;102867.57;1742467;81;25802;-75
2022/03/11 05:30:09;;;;;;;51.88;21.90;;;;;;;-6.35;61.93;102871.01;1743159;81;27540;-75
2022/03/11 05:32:49;;;;;;;50.85;22.55;;;;;;;-6.34;61.94;102870.58;1745704;81;25853;-75
2022/03/11 05:35:15;;;;;;;55.70;23.70;;;;;;;-6.33;62.18;102875.76;1747025;81;25864;-74
2022/03/11 05:37:44;;;;;;;52.80;21.95;;;;;;;-6.31;62.23;102870.55;1740228;81;26687;-75
2022/03/11 05:40:10;;;;;;;45.48;21.27;;;;;;;-6.30;62.36;102870.50;1743913;81;25863;-75
2022/03/11 05:42:37;;;;;;;46.30;21.48;;;;;;;-6.25;62.42;102874.34;1748699;81;27616;-75
2022/03/11 05:45:07;;;;;;;56.77;24.35;;;;;;;-6.20;62.51;102878.19;1740927;81;25827;-75
2022/03/11 05:47:34;;;;;;;52.85;21.52;;;;;;;-6.16;62.80;102887.24;1744254;81;26535;-74
2022/03/11 05:50:00;;;;;;;54.80;23.18;;;;;;;-6.14;63.04;102888.08;1746225;81;25819;-75
2022/03/11 05:52:26;;;;;;;60.63;22.37;;;;;;;-6.11;63.32;102888.01;1734621;81;26004;-75
2022/03/11 05:54:53;;;;;;;51.35;22.30;;;;;;;-6.07;63.50;102891.45;1748930;81;27453;-76
2022/03/11 05:57:19;;;;;;;66.57;26.70;;;;;;;-6.04;63.64;102893.55;1740244;81;25893;-75
2022/03/11 05:59:46;;;;;;;58.08;25.05;;;;;;;-6.01;63.57;102897.42;1744590;81;25828;-75
2022/03/11 06:02:12;;;;;;;62.27;27.25;;;;;;;-5.94;63.71;102895.11;1746592;81;25837;-76
2022/03/11 06:04:38;;;;;;;72.20;28.65;;;;;;;-5.91;63.80;102904.64;1743042;80;25883;-75
2022/03/11 06:07:05;;;;;;;65.20;26.15;;;;;;;-5.85;63.82;102904.09;1742445;81;27519;-75
2022/03/11 06:09:31;;;;;;;61.77;26.52;;;;;;;-5.81;63.93;102909.63;1744251;81;25920;-75
2022/03/11 06:11:58;;;;;;;65.35;25.92;;;;;;;-5.77;63.97;102908.69;1744238;81;25983;-76
2022/03/11 06:14:24;;;;;;;58.70;26.15;;;;;;;-5.70;63.96;102915.97;1741758;81;27205;-75
2022/03/11 06:16:50;;;;;;;65.17;24.80;;;;;;;-5.65;63.93;102905.88;1744094;81;25902;-75
2022/03/11 06:19:16;;;;;;;78.45;32.42;;;;;;;-5.59;63.85;102909.68;1749081;81;27500;-75
2022/03/11 06:21:42;;;;;;;65.67;32.42;;;;;;;-5.56;63.80;102909.60;1753944;81;26031;-75
2022/03/11 06:24:09;;;;;;;62.00;28.02;;;;;;;-5.49;63.64;102905.13;1741155;81;26445;-75
2022/03/11 06:26:35;;;;;;;76.20;33.85;;;;;;;-5.42;63.48;102911.10;1749845;81;25814;-75
2022/03/11 06:29:01;;;;;;;91.32;47.05;;;;;;;-5.35;63.41;102911.41;1745315;81;25915;-75
2022/03/11 06:31:27;;;;;;;85.60;40.92;;;;;;;-5.29;63.26;102908.67;1745232;81;27509;-75
2022/03/11 06:33:54;;;;;;;90.10;42.20;;;;;;;-5.23;63.15;102906.80;1737531;81;25899;-75
2022/03/11 06:36:20;;;;;;;96.63;41.28;;;;;;;-5.16;62.78;102912.33;1746705;81;26544;-75
2022/03/11 06:38:47;;;;;;;113.75;55.33;;;;;;;-5.07;62.96;102910.81;1744672;81;26505;-75
2022/03/11 06:41:13;;;;;;;96.53;47.48;;;;;;;-5.00;62.59;102911.11;1745747;81;25327;-75
2022/03/11 06:43:39;;;;;;;91.72;41.85;;;;;;;-4.91;62.18;102921.37;1753950;81;27431;-75
2022/03/11 06:46:06;;;;;;;87.10;40.73;;;;;;;-4.83;62.14;102918.15;1738950;81;25537;-74
2022/03/11 06:48:32;;;;;;;70.40;29.98;;;;;;;-4.75;62.13;102921.45;1736867;81;25621;-75
2022/03/11 06:51:04;;;;;;;56.68;25.75;;;;;;;-4.64;62.39;102909.45;1742921;81;25843;-74
2022/03/11 06:53:27;;;;;;;57.95;30.88;;;;;;;-4.53;62.34;102910.55;1708636;83;25918;-75
2022/03/11 06:55:54;;;;;;;65.90;29.45;;;;;;;-4.43;62.16;102912.05;1711003;83;28615;-75
2022/03/11 06:58:20;;;;;;;65.65;30.17;;;;;;;-4.32;61.90;102912.67;1694202;84;25792;-75
2022/03/11 07:00:46;;;;;;;73.07;32.85;;;;;;;-4.22;61.94;102915.03;1698001;83;25776;-75
2022/03/11 07:03:12;;;;;;;52.43;25.85;;;;;;;-4.10;61.92;102913.86;1696678;83;25860;-75
2022/03/11 07:05:38;;;;;;;49.53;19.50;;;;;;;-3.99;61.76;102906.61;1685852;83;26007;-79
2022/03/11 07:08:08;;;;;;;41.68;19.00;;;;;;;-3.88;61.32;102921.60;1697227;84;27447;-78
2022/03/11 07:10:34;;;;;;;46.37;19.05;;;;;;;-3.76;61.23;102913.90;1696994;82;25336;-79
2022/03/11 07:13:00;;;;;;;39.10;17.98;;;;;;;-3.64;60.89;102913.12;1709872;83;25868;-76
2022/03/11 07:15:26;;;;;;;33.83;16.07;;;;;;;-3.53;60.83;102909.75;1715473;82;26364;-77
2022/03/11 07:17:53;;;;;;;32.42;15.45;;;;;;;-3.42;60.23;102916.04;1712006;81;25942;-78
2022/03/11 07:20:19;;;;;;;37.80;17.70;;;;;;;-3.33;60.07;102916.63;1686892;84;28798;-76
2022/03/11 07:22:47;;;;;;;33.40;15.40;;;;;;;-3.22;59.54;102913.27;1687690;83;26600;-75
2022/03/11 07:25:17;;;;;;;32.88;15.48;;;;;;;-3.13;59.32;102912.16;1695022;83;26614;-76
2022/03/11 07:27:45;;;;;;;31.17;14.47;;;;;;;-3.02;58.82;102914.02;1690067;83;26809;-75
2022/03/11 07:30:12;;;;;;;30.20;13.00;;;;;;;-2.94;58.81;102909.41;1693375;84;25885;-76
2022/03/11 07:32:39;;;;;;;29.05;12.35;;;;;;;-2.84;58.40;102912.16;1695202;83;27473;-75
2022/03/11 07:35:08;;;;;;;34.23;13.65;;;;;;;-2.76;58.27;102907.54;1696306;84;25861;-76
2022/03/11 07:37:39;;;;;;;29.00;13.13;;;;;;;-2.68;57.88;102911.27;1693601;83;25844;-76
2022/03/11 07:40:06;;;;;;;33.85;15.03;;;;;;;-2.60;58.10;102911.44;1697635;84;25768;-76
2022/03/11 07:42:33;;;;;;;31.85;13.85;;;;;;;-2.50;57.98;102919.88;1694006;83;26321;-75
2022/03/11 07:45:00;;;;;;;32.55;16.07;;;;;;;-2.41;57.94;102917.84;1698093;84;28315;-76
2022/03/11 07:47:26;;;;;;;25.68;12.20;;;;;;;-2.32;57.37;102919.76;1696681;84;26459;-76
2022/03/11 07:49:52;;;;;;;25.62;13.03;;;;;;;-2.24;56.26;102917.74;1699680;84;25801;-75
2022/03/11 07:52:21;;;;;;;30.62;14.07;;;;;;;-2.15;56.64;102916.14;1695102;83;25906;-75
2022/03/11 07:54:47;;;;;;;33.20;15.13;;;;;;;-2.07;56.35;102913.67;1700515;84;25337;-76
2022/03/11 07:57:13;;;;;;;24.67;13.00;;;;;;;-1.98;55.66;102917.32;1695941;84;28342;-78
2022/03/11 07:59:41;;;;;;;28.05;12.15;;;;;;;-1.89;55.76;102920.10;1698909;83;25821;-75
2022/03/11 08:02:08;;;;;;;23.02;10.65;;;;;;;-1.79;55.40;102924.99;1693383;84;26524;-75
2022/03/11 08:04:34;;;;;;;22.10;10.85;;;;;;;-1.62;54.22;102917.84;1692961;84;25889;-75
2022/03/11 08:07:06;;;;;;;21.52;10.38;;;;;;;-1.51;54.21;102924.05;1697940;83;26416;-77
2022/03/11 08:09:29;;;;;;;19.45;8.93;;;;;;;-1.51;54.21;102924.05;1692394;83;27480;-76
2022/03/11 08:11:55;;;;;;;18.05;8.75;;;;;;;-1.40;54.00;102914.02;1697253;83;25906;-75
2022/03/11 08:14:21;;;;;;;18.05;7.80;;;;;;;-1.32;53.32;102913.28;1692420;83;26778;-78
2022/03/11 08:16:48;;;;;;;18.35;8.20;;;;;;;-1.25;52.18;102910.40;1712158;83;25940;-76
2022/03/11 08:19:15;;;;;;;19.57;8.93;;;;;;;-1.18;52.60;102911.91;1709672;83;26084;-76
2022/03/11 08:21:41;;;;;;;16.48;8.80;;;;;;;-1.11;52.12;102904.66;1697416;83;28267;-76
2022/03/11 08:24:07;;;;;;;11.83;6.30;;;;;;;-1.00;51.21;102919.55;1704809;83;25817;-76
2022/03/11 08:26:33;;;;;;;11.80;6.55;;;;;;;-0.95;50.31;102918.94;1696390;83;26604;-77
2022/03/11 08:29:00;;;;;;;13.05;6.70;;;;;;;-0.90;49.95;102919.16;1712967;83;26568;-77
2022/03/11 08:31:26;;;;;;;15.25;6.72;;;;;;;-0.83;49.01;102923.73;1717211;83;25751;-77
2022/03/11 08:33:52;;;;;;;15.03;8.28;;;;;;;-0.80;48.09;102924.95;1682582;84;27483;-75
2022/03/11 08:36:18;;;;;;;15.38;8.13;;;;;;;-0.77;48.84;102923.05;1711611;83;25866;-78
2022/03/11 08:38:46;;;;;;;15.53;6.75;;;;;;;-0.69;49.02;102924.54;1687490;84;25822;-76
2022/03/11 08:41:12;;;;;;;15.23;7.72;;;;;;;-0.64;47.92;102919.48;1709577;83;26303;-76
2022/03/11 08:43:40;;;;;;;57.13;22.93;;;;;;;-0.59;47.46;102915.36;1694191;84;25944;-76
2022/03/11 08:46:09;;;;;;;70.03;27.05;;;;;;;-0.56;47.52;102908.23;1690220;83;27618;-76
2022/03/11 08:48:36;;;;;;;18.75;9.43;;;;;;;-0.49;47.23;102907.53;1695592;83;25962;-76
2022/03/11 08:51:04;;;;;;;26.50;14.47;;;;;;;-0.44;46.61;102906.42;1683560;84;26005;-76
2022/03/11 08:53:30;;;;;;;21.85;11.80;;;;;;;-0.39;46.79;102907.56;1689929;83;25977;-76
2022/03/11 08:55:56;;;;;;;278.88;142.68;;;;;;;-0.36;46.61;102907.42;1720165;82;25791;-76
2022/03/11 08:58:22;;;;;;;51.02;27.98;;;;;;;-0.34;46.20;102902.50;1715433;83;28075;-76
2022/03/11 09:00:48;;;;;;;34.23;16.52;;;;;;;-0.28;46.21;102898.78;1708520;83;26554;-76
2022/03/11 09:03:15;;;;;;;19.85;10.08;;;;;;;-0.22;46.69;102904.66;1709049;83;25816;-76
2022/03/11 09:05:41;;;;;;;13.40;7.30;;;;;;;-0.12;46.00;102900.73;1698324;83;25844;-77
2022/03/11 09:08:07;;;;;;;15.08;7.85;;;;;;;-0.05;45.20;102900.02;1698382;83;25831;-76
2022/03/11 09:10:35;;;;;;;15.05;8.30;;;;;;;-0.10;45.23;102894.07;1679380;84;27526;-76
2022/03/11 09:13:02;;;;;;;19.02;7.08;;;;;;;0.02;45.44;102904.58;1720692;83;26306;-76
2022/03/11 09:15:28;;;;;;;15.03;7.12;;;;;;;0.09;45.69;102904.70;1692038;84;25894;-77
2022/03/11 09:17:54;;;;;;;15.13;6.35;;;;;;;0.17;44.89;102915.80;1698006;83;25805;-76
2022/03/11 09:20:23;;;;;;;11.95;5.17;;;;;;;0.19;44.23;102908.23;1698308;83;26513;-76
2022/03/11 09:22:49;;;;;;;10.58;5.78;;;;;;;0.25;43.30;102908.42;1691290;83;27449;-76
2022/03/11 09:25:18;;;;;;;10.00;5.60;;;;;;;0.28;43.31;102899.91;1706784;83;25845;-77
2022/03/11 09:27:45;;;;;;;9.15;4.70;;;;;;;0.34;43.56;102906.23;1710881;83;25837;-76
2022/03/11 09:30:13;;;;;;;9.55;5.42;;;;;;;0.38;42.72;102909.17;1697794;83;26158;-76
2022/03/11 09:32:39;;;;;;;10.38;5.33;;;;;;;0.47;42.91;102899.52;1696870;83;25864;-76
2022/03/11 09:35:08;;;;;;;12.37;5.83;;;;;;;0.54;42.97;102905.39;1697571;83;27480;-77
2022/03/11 09:37:36;;;;;;;11.43;5.60;;;;;;;0.60;42.52;102899.84;1691362;84;25663;-76
2022/03/11 09:40:05;;;;;;;10.88;5.03;;;;;;;0.64;41.44;102898.81;1687824;83;25642;-76
2022/03/11 09:42:31;;;;;;;11.78;5.45;;;;;;;0.67;41.56;102893.38;1679582;84;25904;-77
2022/03/11 09:44:58;;;;;;;11.88;5.35;;;;;;;0.70;41.06;102892.81;1710790;83;25717;-77
2022/03/11 09:47:24;;;;;;;12.60;6.37;;;;;;;0.76;41.99;102891.66;1712631;83;27689;-76
2022/03/11 09:49:51;;;;;;;15.28;6.67;;;;;;;0.85;40.52;102887.30;1707175;83;25971;-76
2022/03/11 09:52:23;;;;;;;14.18;6.37;;;;;;;0.90;40.69;102894.53;1711881;83;25948;-77
2022/03/11 09:54:49;;;;;;;9.95;5.60;;;;;;;0.89;40.91;102893.29;1709982;83;25888;-77
2022/03/11 09:57:23;;;;;;;12.93;6.20;;;;;;;0.95;41.13;102888.59;1711591;83;26467;-78
2022/03/11 09:59:50;;;;;;;17.90;9.40;;;;;;;1.01;40.73;102896.68;1708747;83;28285;-77
2022/03/11 10:02:18;;;;;;;22.98;11.48;;;;;;;1.04;39.81;102888.19;1708941;83;25770;-77
2022/03/11 10:04:50;;;;;;;11.88;6.05;;;;;;;1.09;40.44;102879.57;1686504;84;25804;-77
2022/03/11 10:07:28;;;;;;;22.82;10.72;;;;;;;1.17;40.18;102880.10;1707252;83;26375;-76
2022/03/11 10:09:57;;;;;;;45.23;19.87;;;;;;;1.22;40.19;102878.08;1745958;81;25563;-76
2022/03/11 10:12:29;;;;;;;66.72;25.23;;;;;;;1.29;39.06;102881.29;1745709;81;27517;-76
2022/03/11 10:14:58;;;;;;;54.15;18.95;;;;;;;1.34;38.49;102876.66;1737334;81;25286;-77
2022/03/11 10:17:25;;;;;;;199.30;64.58;;;;;;;1.38;38.90;102882.19;1733867;81;25936;-76
2022/03/11 10:20:06;;;;;;;66.12;28.95;;;;;;;1.41;38.88;102882.05;1720145;80;26525;-77
2022/03/11 10:22:34;;;;;;;15.78;8.95;;;;;;;1.45;39.25;102879.66;1678663;84;25915;-76
2022/03/11 10:25:21;;;;;;;18.20;8.78;;;;;;;1.50;38.82;102878.50;1678725;84;47677;-76
2022/03/11 10:28:09;;;;;;;34.18;16.17;;;;;;;1.56;38.64;102868.13;1680155;84;25851;-76
2022/03/11 10:30:40;;;;;;;14.35;9.83;;;;;;;1.64;39.32;102867.73;1680174;83;26118;-77
2022/03/11 10:33:13;;;;;;;16.35;8.10;;;;;;;1.70;38.05;102862.15;1674213;84;25825;-76
2022/03/11 10:35:47;;;;;;;9.03;5.28;;;;;;;1.75;37.24;102859.69;1682628;84;25769;-77
2022/03/11 10:38:20;;;;;;;12.13;6.15;;;;;;;1.77;37.83;102857.83;1670724;84;28277;-77
2022/03/11 10:40:55;;;;;;;14.25;6.55;;;;;;;1.80;37.67;102855.02;1671103;84;25866;-76
2022/03/11 10:43:31;;;;;;;13.58;5.47;;;;;;;1.83;37.78;102851.38;1676615;84;25985;-77
2022/03/11 10:46:11;;;;;;;15.18;8.08;;;;;;;1.91;38.26;102854.48;1678695;84;25853;-76
2022/03/11 10:48:49;;;;;;;11.12;5.22;;;;;;;1.97;38.21;102850.20;1684414;84;25696;-77
2022/03/11 10:51:32;;;;;;;11.35;5.53;;;;;;;2.04;36.70;102847.66;1686688;83;27484;-76
2022/03/11 10:54:01;;;;;;;14.78;7.28;;;;;;;2.14;38.02;102843.59;1666310;84;25805;-77
2022/03/11 10:56:39;;;;;;;10.60;5.37;;;;;;;2.23;37.90;102842.68;1664965;84;25780;-76
2022/03/11 10:59:23;;;;;;;12.85;6.10;;;;;;;2.28;36.17;102852.56;1658973;84;26641;-77
2022/03/11 11:01:52;;;;;;;9.13;4.85;;;;;;;2.28;37.00;102847.28;1664963;84;26070;-75
2022/03/11 11:04:18;;;;;;;12.40;5.67;;;;;;;2.34;37.73;102845.62;1668668;84;27485;-76
2022/03/11 11:06:46;;;;;;;10.25;5.28;;;;;;;2.42;37.10;102849.19;1682803;84;26001;-76
2022/03/11 11:09:17;;;;;;;9.08;4.50;;;;;;;2.52;36.65;102846.93;1671751;84;25880;-76
2022/03/11 11:11:45;;;;;;;14.45;6.75;;;;;;;2.60;37.51;102846.91;1660817;84;25960;-82
2022/03/11 11:14:12;;;;;;;9.55;5.10;;;;;;;2.67;37.80;102843.48;1666413;84;26437;-77